Time;durP1;ratioP1;P1;durP2;ratioP2;P2;SDS_P1;SDS_P2;PMS_P1;PMS_P2;Temp;Humidity;BMP_temperature;BMP_pressure;BME280_temperature;BME280_humidity;BME280_pressure;Samples;Min_cycle;Max_cycle;Signal;HPM_P1;HPM_P2
2021/04/22 00:02:04;;;;;;;4.50;3.60;;;;;;;11.77;47.78;95386.34;6880046;28;20229;-70
2021/04/22 00:05:31;;;;;;;4.03;3.63;;;;;;;11.71;47.97;95384.25;6876685;28;20220;-71
2021/04/22 00:08:51;;;;;;;6.40;4.43;;;;;;;11.62;48.18;95379.75;6889299;28;20636;-72
2021/04/22 00:12:13;;;;;;;4.33;3.93;;;;;;;11.56;48.27;95383.81;6890547;28;20765;-70
2021/04/22 00:15:34;;;;;;;3.80;3.47;;;;;;;11.49;48.34;95376.53;6895437;28;20604;-72
2021/04/22 00:18:55;;;;;;;3.83;3.40;;;;;;;11.43;48.75;95379.72;6872733;28;20217;-71
2021/04/22 00:22:15;;;;;;;3.83;3.43;;;;;;;11.37;48.62;95374.97;6882580;28;20216;-70
2021/04/22 00:25:36;;;;;;;3.37;3.07;;;;;;;11.37;48.54;95380.28;6889990;28;20299;-71
2021/04/22 00:28:56;;;;;;;3.43;3.13;;;;;;;11.40;48.96;95380.88;6872914;28;20709;-71
2021/04/22 00:32:17;;;;;;;3.87;3.50;;;;;;;11.40;49.14;95386.19;6881564;28;20270;-71
2021/04/22 00:35:37;;;;;;;3.70;3.40;;;;;;;11.38;49.04;95390.78;6863096;28;20713;-72
2021/04/22 00:38:58;;;;;;;4.27;3.87;;;;;;;11.35;49.04;95393.72;6886380;28;20220;-72
2021/04/22 00:42:19;;;;;;;3.67;3.37;;;;;;;11.29;48.91;95386.28;6895701;28;20573;-71
2021/04/22 00:45:43;;;;;;;3.60;3.30;;;;;;;11.27;49.43;95392.72;6888201;28;20216;-72
2021/04/22 00:49:07;;;;;;;4.10;3.70;;;;;;;11.19;49.66;95390.75;6890123;28;20227;-72
2021/04/22 00:52:27;;;;;;;3.37;3.07;;;;;;;11.14;49.60;95388.50;6870682;28;20885;-72
2021/04/22 00:55:48;;;;;;;5.57;3.70;;;;;;;11.11;49.26;95386.13;6902417;28;20710;-70
2021/04/22 00:59:09;;;;;;;4.87;3.60;;;;;;;11.06;49.52;95395.50;6865665;28;20635;-70
2021/04/22 01:02:32;;;;;;;4.30;3.53;;;;;;;11.02;49.75;95397.56;6894295;28;20231;-72
2021/04/22 01:05:56;;;;;;;4.13;3.73;;;;;;;11.03;49.75;95407.22;6890958;28;21000;-71
2021/04/22 01:09:17;;;;;;;4.17;3.77;;;;;;;10.99;49.54;95403.16;6878789;28;20294;-70
2021/04/22 01:12:37;;;;;;;5.27;3.67;;;;;;;10.97;49.88;95404.25;6892123;28;20583;-71
2021/04/22 01:15:58;;;;;;;3.57;3.27;;;;;;;10.92;49.64;95404.66;6890294;28;20217;-72
2021/04/22 01:19:18;;;;;;;3.67;3.37;;;;;;;10.82;49.55;95405.59;6881723;28;20649;-70
2021/04/22 01:22:42;;;;;;;4.60;3.50;;;;;;;10.74;50.40;95408.94;6907351;28;20225;-70
2021/04/22 01:26:05;;;;;;;4.43;3.13;;;;;;;10.72;50.60;95406.38;6873499;28;20664;-71
2021/04/22 01:29:28;;;;;;;3.80;3.30;;;;;;;10.70;49.79;95411.00;6882649;28;20275;-70
2021/04/22 01:32:49;;;;;;;4.47;2.80;;;;;;;10.67;50.20;95415.72;6888275;28;20228;-72
2021/04/22 01:36:10;;;;;;;4.17;3.57;;;;;;;10.65;50.26;95410.56;6875208;28;20723;-71
2021/04/22 01:39:30;;;;;;;3.83;3.30;;;;;;;10.64;50.44;95411.53;6883756;28;20249;-70
2021/04/22 01:42:51;;;;;;;2.93;2.73;;;;;;;10.66;49.99;95408.75;6882286;28;20316;-71
2021/04/22 01:46:14;;;;;;;3.00;2.80;;;;;;;10.66;50.42;95414.06;6897820;28;20229;-72
2021/04/22 01:49:34;;;;;;;3.07;2.87;;;;;;;10.65;50.18;95417.69;6896660;28;20270;-70
2021/04/22 01:52:56;;;;;;;3.57;3.27;;;;;;;10.65;50.61;95415.88;6890580;28;20236;-71
2021/04/22 01:56:17;;;;;;;3.60;3.30;;;;;;;10.63;50.28;95414.31;6902200;28;20311;-70
2021/04/22 01:59:41;;;;;;;3.83;3.53;;;;;;;10.58;51.07;95424.50;6871972;28;20642;-71
2021/04/22 02:03:03;;;;;;;4.30;3.90;;;;;;;10.51;51.05;95421.53;6873097;28;20294;-70
2021/04/22 02:06:23;;;;;;;4.37;3.97;;;;;;;10.45;51.12;95416.75;6887606;28;20212;-71
2021/04/22 02:09:46;;;;;;;3.70;3.40;;;;;;;10.35;51.64;95423.81;6886148;28;20247;-70
2021/04/22 02:13:09;;;;;;;4.97;3.07;;;;;;;10.27;51.30;95426.28;6891834;28;20232;-69
2021/04/22 02:16:29;;;;;;;3.80;3.50;;;;;;;10.24;51.20;95429.19;6900210;28;20212;-71
2021/04/22 02:19:50;;;;;;;3.50;3.20;;;;;;;10.19;51.60;95432.25;6910397;28;20213;-71
2021/04/22 02:23:17;;;;;;;3.90;3.50;;;;;;;10.12;51.73;95436.34;6888261;28;20299;-71
2021/04/22 02:26:38;;;;;;;3.37;3.07;;;;;;;9.98;51.53;95431.34;6894128;28;20228;-71
2021/04/22 02:29:58;;;;;;;3.83;3.53;;;;;;;9.91;52.20;95436.31;6875408;28;20217;-71
2021/04/22 02:33:19;;;;;;;4.33;3.87;;;;;;;9.90;52.80;95439.13;6886487;28;20220;-71
2021/04/22 02:36:40;;;;;;;4.50;4.10;;;;;;;9.91;52.40;95440.78;6888634;28;20300;-71
2021/04/22 02:40:01;;;;;;;5.03;4.33;;;;;;;9.96;52.45;95432.47;6887510;28;20320;-71
2021/04/22 02:43:21;;;;;;;4.37;3.97;;;;;;;9.95;52.54;95431.63;6878776;28;20658;-72
2021/04/22 02:46:42;;;;;;;3.60;3.30;;;;;;;9.94;52.53;95415.81;6894461;28;20719;-71
2021/04/22 02:50:06;;;;;;;4.30;3.97;;;;;;;9.95;52.70;95430.78;6895386;28;20220;-70
2021/04/22 02:53:27;;;;;;;3.83;3.53;;;;;;;9.91;52.98;95427.50;6893617;28;20235;-71
2021/04/22 02:56:47;;;;;;;4.17;3.57;;;;;;;9.93;52.70;95435.34;6896658;28;20209;-71
2021/04/22 03:00:11;;;;;;;4.70;3.87;;;;;;;9.91;52.52;95438.97;6869115;28;20951;-71
2021/04/22 03:03:31;;;;;;;4.20;3.80;;;;;;;9.83;53.02;95438.78;6894894;28;20229;-71
2021/04/22 03:06:54;;;;;;;4.50;4.10;;;;;;;9.80;53.23;95440.84;6893007;28;20237;-72
2021/04/22 03:10:20;;;;;;;3.90;3.60;;;;;;;9.79;53.81;95436.50;6898476;28;22206;-70
2021/04/22 03:13:41;;;;;;;3.37;3.10;;;;;;;9.76;53.38;95434.09;6887079;28;20216;-72
2021/04/22 03:17:01;;;;;;;4.67;4.27;;;;;;;9.70;53.57;95437.28;6898052;28;20306;-70
2021/04/22 03:20:22;;;;;;;5.37;4.20;;;;;;;9.61;53.68;95438.00;6884852;28;20304;-71
2021/04/22 03:23:43;;;;;;;4.70;4.30;;;;;;;9.53;53.52;95435.16;6875458;28;20727;-71
2021/04/22 03:27:04;;;;;;;5.10;4.70;;;;;;;9.47;54.02;95439.13;6890430;28;20262;-71
2021/04/22 03:30:29;;;;;;;4.50;4.07;;;;;;;9.41;53.72;95432.53;6901348;28;20230;-72
2021/04/22 03:33:49;;;;;;;4.17;3.80;;;;;;;9.35;54.27;95443.66;6892420;28;20282;-72
2021/04/22 03:37:12;;;;;;;4.23;3.73;;;;;;;9.33;53.97;95431.47;6893251;28;20908;-72
2021/04/22 03:40:32;;;;;;;3.97;3.67;;;;;;;9.34;54.44;95435.81;6874650;28;20306;-71
2021/04/22 03:43:53;;;;;;;4.00;3.70;;;;;;;9.37;54.50;95438.19;6875078;28;20216;-71
2021/04/22 03:47:14;;;;;;;3.87;3.57;;;;;;;9.40;53.90;95440.63;6895615;28;20223;-71
2021/04/22 03:50:36;;;;;;;3.67;3.37;;;;;;;9.41;54.22;95439.63;6890632;28;20576;-71
2021/04/22 03:53:57;;;;;;;6.03;4.87;;;;;;;9.37;54.41;95452.31;6891411;28;20228;-71
2021/04/22 03:57:18;;;;;;;4.50;4.07;;;;;;;9.35;54.61;95442.81;6873129;28;20227;-71
2021/04/22 04:00:38;;;;;;;5.13;4.53;;;;;;;9.30;54.26;95443.19;6915053;28;20595;-72
2021/04/22 04:03:58;;;;;;;5.47;4.97;;;;;;;9.27;54.52;95443.41;6887710;28;20701;-74
2021/04/22 04:07:19;;;;;;;4.77;4.20;;;;;;;9.29;54.71;95449.44;6882345;28;20227;-72
2021/04/22 04:10:39;;;;;;;4.20;3.90;;;;;;;9.29;54.18;95453.88;6878074;28;20294;-71
2021/04/22 04:14:00;;;;;;;5.07;4.57;;;;;;;9.24;54.86;95448.97;6882015;28;20310;-71
2021/04/22 04:17:20;;;;;;;5.37;4.97;;;;;;;9.23;54.92;95454.38;6899465;28;20231;-72
2021/04/22 04:20:41;;;;;;;5.10;4.60;;;;;;;9.18;54.88;95452.09;6883089;28;20819;-72
2021/04/22 04:24:01;;;;;;;4.47;4.10;;;;;;;9.15;54.84;95468.25;6878584;28;20218;-73
2021/04/22 04:27:22;;;;;;;4.60;4.10;;;;;;;9.13;54.87;95464.88;6893724;28;20215;-73
2021/04/22 04:30:42;;;;;;;4.43;4.00;;;;;;;9.16;54.81;95474.38;6889179;28;20218;-74
2021/04/22 04:34:03;;;;;;;5.37;4.37;;;;;;;9.15;54.82;95470.06;6881537;28;20226;-73
2021/04/22 04:37:23;;;;;;;5.20;4.80;;;;;;;9.17;55.23;95476.06;6889809;28;20285;-73
2021/04/22 04:40:44;;;;;;;4.33;3.97;;;;;;;9.16;54.85;95483.16;6866663;28;20658;-73
2021/04/22 04:44:05;;;;;;;4.57;4.17;;;;;;;9.13;54.61;95480.75;6880915;28;20224;-72
2021/04/22 04:47:27;;;;;;;4.40;4.00;;;;;;;9.10;54.97;95490.78;6883469;28;20213;-73
2021/04/22 04:50:48;;;;;;;4.77;4.00;;;;;;;9.07;54.92;95494.50;6886353;28;20235;-73
2021/04/22 04:54:08;;;;;;;6.23;5.63;;;;;;;9.04;54.88;95498.25;6876368;28;20249;-73
2021/04/22 04:57:29;;;;;;;7.30;6.60;;;;;;;9.07;56.16;95496.28;6889963;28;20255;-72
2021/04/22 05:00:49;;;;;;;7.10;6.40;;;;;;;9.07;55.63;95506.88;6882604;28;20694;-72
2021/04/22 05:04:10;;;;;;;5.97;5.47;;;;;;;9.10;55.60;95506.66;6885561;28;20226;-74
2021/04/22 05:07:31;;;;;;;6.07;4.93;;;;;;;9.12;55.76;95505.56;6884924;28;20235;-73
2021/04/22 05:10:51;;;;;;;6.17;5.53;;;;;;;9.16;56.00;95514.09;6886503;28;20300;-73
2021/04/22 05:14:11;;;;;;;5.07;4.57;;;;;;;9.20;55.61;95513.78;6875114;28;20225;-74
2021/04/22 05:17:32;;;;;;;4.77;4.37;;;;;;;9.22;55.45;95525.06;6873016;28;20662;-71
2021/04/22 05:20:53;;;;;;;6.70;5.23;;;;;;;9.30;56.15;95524.47;6900666;28;20223;-71
2021/04/22 05:24:13;;;;;;;5.10;4.60;;;;;;;9.41;55.64;95529.75;6888919;28;20215;-71
2021/04/22 05:27:34;;;;;;;7.87;5.03;;;;;;;9.53;55.50;95527.94;6893548;28;20220;-71
2021/04/22 05:30:54;;;;;;;5.80;4.53;;;;;;;9.63;55.59;95528.88;6877527;28;20282;-71
2021/04/22 05:34:17;;;;;;;5.10;4.60;;;;;;;9.71;55.59;95531.75;6906676;28;20708;-71
2021/04/22 05:37:37;;;;;;;5.77;5.27;;;;;;;9.85;56.08;95534.16;6919368;28;20228;-71
2021/04/22 05:40:58;;;;;;;6.10;4.93;;;;;;;10.06;55.05;95542.16;6892658;28;20284;-73
2021/04/22 05:44:18;;;;;;;6.53;5.90;;;;;;;10.23;54.88;95542.47;6888089;28;20213;-71
2021/04/22 05:47:38;;;;;;;7.10;6.13;;;;;;;10.35;55.22;95537.13;6890133;28;20216;-72
2021/04/22 05:51:01;;;;;;;7.10;6.50;;;;;;;10.49;54.65;95540.31;6896779;28;20224;-72
2021/04/22 05:54:22;;;;;;;12.10;11.10;;;;;;;10.66;54.05;95537.06;6890182;28;20220;-73
2021/04/22 05:57:42;;;;;;;7.57;6.87;;;;;;;10.82;54.37;95544.56;6879717;28;20603;-71
2021/04/22 06:01:04;;;;;;;7.17;6.47;;;;;;;11.03;53.86;95531.25;6881020;28;20225;-71
2021/04/22 06:04:24;;;;;;;9.20;7.20;;;;;;;11.22;53.11;95536.66;6885769;28;20607;-72
2021/04/22 06:07:45;;;;;;;8.70;7.03;;;;;;;11.42;53.21;95541.09;6895658;28;20760;-71
2021/04/22 06:11:08;;;;;;;6.67;5.37;;;;;;;11.50;52.44;95543.94;6899314;28;20228;-77
2021/04/22 06:14:28;;;;;;;7.83;4.87;;;;;;;11.67;52.48;95544.28;6895774;28;20589;-73
2021/04/22 06:17:49;;;;;;;5.43;4.93;;;;;;;11.93;52.63;95548.13;6885256;28;20766;-74
2021/04/22 06:21:11;;;;;;;4.80;4.30;;;;;;;12.15;51.63;95553.22;6886020;28;20255;-75
2021/04/22 06:24:31;;;;;;;4.53;4.10;;;;;;;12.33;51.50;95556.88;6891500;28;20232;-73
2021/04/22 06:27:52;;;;;;;4.33;4.03;;;;;;;12.47;50.67;95550.31;6895036;28;20210;-75
2021/04/22 06:31:13;;;;;;;4.40;4.00;;;;;;;12.65;50.91;95555.75;6874922;28;20233;-74
2021/04/22 06:34:33;;;;;;;4.27;3.97;;;;;;;12.80;50.06;95557.00;6868863;28;20216;-74
2021/04/22 06:37:54;;;;;;;4.57;3.67;;;;;;;13.00;49.83;95558.66;6883056;28;20218;-74
2021/04/22 06:41:14;;;;;;;4.10;3.80;;;;;;;13.19;49.19;95563.13;6870388;28;20316;-75
2021/04/22 06:44:36;;;;;;;5.90;3.70;;;;;;;13.37;49.22;95561.41;6893119;28;20221;-74
2021/04/22 06:47:59;;;;;;;4.37;3.97;;;;;;;13.62;48.53;95562.56;6895907;28;20224;-73
2021/04/22 06:51:19;;;;;;;4.13;3.83;;;;;;;13.85;48.26;95563.84;6893980;28;20287;-74
2021/04/22 06:54:40;;;;;;;5.67;4.50;;;;;;;14.10;47.76;95564.97;6896397;28;20225;-75
2021/04/22 06:58:05;;;;;;;4.27;3.87;;;;;;;14.34;47.30;95565.22;6892340;28;20315;-75
2021/04/22 07:01:28;;;;;;;4.70;4.30;;;;;;;14.61;46.67;95561.69;6875384;28;20216;-76
2021/04/22 07:04:48;;;;;;;4.73;4.33;;;;;;;14.93;46.37;95561.97;6895620;28;20227;-74
2021/04/22 07:08:09;;;;;;;4.77;4.37;;;;;;;15.18;45.74;95565.69;6884134;28;20228;-77
2021/04/22 07:11:29;;;;;;;4.70;4.30;;;;;;;15.32;45.02;95564.25;6885983;28;20228;-74
2021/04/22 07:14:52;;;;;;;5.23;4.67;;;;;;;15.50;45.17;95569.53;6887265;28;20560;-74
2021/04/22 07:18:15;;;;;;;5.37;4.87;;;;;;;15.70;44.48;95563.81;6858930;28;20220;-73
2021/04/22 07:21:37;;;;;;;6.33;5.00;;;;;;;15.95;44.02;95571.97;6896751;28;20221;-73
2021/04/22 07:24:58;;;;;;;5.23;4.83;;;;;;;16.25;43.96;95568.72;6885583;28;20224;-74
2021/04/22 07:28:18;;;;;;;5.50;4.97;;;;;;;16.53;43.51;95575.50;6887596;28;20318;-71
2021/04/22 07:31:41;;;;;;;6.27;5.70;;;;;;;16.81;42.42;95583.28;6890482;28;20238;-73
2021/04/22 07:35:02;;;;;;;5.80;5.30;;;;;;;17.06;41.66;95577.75;6854674;28;20289;-74
2021/04/22 07:38:22;;;;;;;6.97;5.93;;;;;;;17.24;41.77;95588.34;6884140;28;20234;-71
2021/04/22 07:41:43;;;;;;;5.57;5.03;;;;;;;17.55;41.92;95585.78;6876875;28;20230;-72
2021/04/22 07:45:04;;;;;;;8.97;5.90;;;;;;;18.00;40.92;95586.03;6882296;28;20208;-73
2021/04/22 07:48:24;;;;;;;8.63;6.27;;;;;;;18.38;39.75;95584.34;6888089;28;20221;-75
2021/04/22 07:51:48;;;;;;;7.00;6.30;;;;;;;18.64;39.16;95586.75;6892794;28;20700;-75
2021/04/22 07:55:13;;;;;;;7.07;6.40;;;;;;;18.98;38.66;95574.75;6888388;28;20311;-76
2021/04/22 07:58:33;;;;;;;7.23;6.63;;;;;;;19.35;37.76;95585.56;6882441;28;20254;-75
2021/04/22 08:01:53;;;;;;;10.93;6.93;;;;;;;19.53;37.13;95579.84;6896738;28;20225;-75
2021/04/22 08:05:16;;;;;;;8.47;7.43;;;;;;;19.79;37.38;95582.97;6901608;28;20299;-74
2021/04/22 08:08:36;;;;;;;9.53;8.13;;;;;;;20.13;36.73;95580.56;6875143;28;20216;-74
2021/04/22 08:11:57;;;;;;;9.80;8.90;;;;;;;20.33;35.67;95578.13;6901948;28;20233;-76
2021/04/22 08:15:17;;;;;;;10.20;9.33;;;;;;;20.32;35.81;95579.16;6900824;28;20224;-75
2021/04/22 08:18:38;;;;;;;11.63;10.43;;;;;;;20.28;35.73;95585.09;6896841;28;20235;-74
2021/04/22 08:22:00;;;;;;;11.57;10.57;;;;;;;20.16;35.66;95595.53;6883753;28;20312;-75
2021/04/22 08:25:27;;;;;;;10.20;9.30;;;;;;;20.29;36.03;95590.31;6892721;28;20646;-75
2021/04/22 08:28:48;;;;;;;17.83;16.20;;;;;;;20.62;35.57;95600.72;6906987;28;20223;-74
2021/04/22 08:32:08;;;;;;;15.73;14.33;;;;;;;20.92;35.67;95602.31;6891485;28;20220;-75
2021/04/22 08:35:29;;;;;;;13.30;12.00;;;;;;;21.08;34.03;95599.34;6863188;28;20220;-74
2021/04/22 08:38:50;;;;;;;16.03;14.60;;;;;;;21.13;34.62;95606.88;6872762;28;20885;-74
2021/04/22 08:42:14;;;;;;;19.80;17.90;;;;;;;21.45;34.36;95603.69;6872361;28;20605;-75
2021/04/22 08:45:34;;;;;;;19.83;17.93;;;;;;;22.09;34.17;95604.41;6875406;28;20308;-74
2021/04/22 08:48:57;;;;;;;19.50;17.80;;;;;;;22.80;33.67;95598.75;6882593;28;20225;-74
2021/04/22 08:52:18;;;;;;;19.80;17.90;;;;;;;23.50;31.66;95595.59;6869744;28;20375;-73
2021/04/22 08:55:39;;;;;;;19.42;17.63;;;;;;;23.73;31.73;95596.03;6884645;28;20221;-73
2021/04/22 08:59:00;;;;;;;20.02;18.15;;;;;;;24.30;30.90;95598.06;6894273;28;20212;-75
2021/04/22 09:02:21;;;;;;;20.00;18.00;;;;;;;24.99;29.80;95602.88;6885830;28;20224;-74
2021/04/22 09:05:42;;;;;;;19.05;17.15;;;;;;;25.50;29.11;95605.44;6888192;28;20221;-74
2021/04/22 09:09:05;;;;;;;18.50;16.90;;;;;;;26.26;28.58;95601.72;6884886;28;20746;-76
2021/04/22 09:12:26;;;;;;;17.85;16.25;;;;;;;26.73;27.49;95602.91;6871503;28;20761;-75
2021/04/22 09:15:48;;;;;;;19.42;16.30;;;;;;;26.34;27.73;95606.91;6887801;28;20266;-75
2021/04/22 09:19:11;;;;;;;18.02;16.45;;;;;;;25.45;28.04;95608.00;6889686;28;20694;-74
2021/04/22 09:22:42;;;;;;;18.20;16.50;;;;;;;24.51;29.05;95615.13;6879563;28;20740;-75
2021/04/22 09:26:07;;;;;;;18.50;16.80;;;;;;;24.41;29.76;95609.31;6895313;28;20223;-75
2021/04/22 09:29:36;;;;;;;18.02;16.42;;;;;;;25.49;29.45;95611.13;6878717;28;20229;-75
2021/04/22 09:32:58;;;;;;;18.85;17.00;;;;;;;26.71;27.33;95607.75;6876322;28;20236;-74
2021/04/22 09:36:18;;;;;;;19.13;17.23;;;;;;;27.68;26.08;95607.50;6871000;28;20225;-75
2021/04/22 09:39:39;;;;;;;18.95;17.10;;;;;;;28.66;25.22;95608.78;6874941;28;20304;-75
2021/04/22 09:43:01;;;;;;;17.65;16.05;;;;;;;29.50;24.88;95612.75;6868631;28;20734;-75
2021/04/22 09:46:22;;;;;;;17.80;16.35;;;;;;;30.25;23.51;95608.59;6895215;28;20216;-76
2021/04/22 09:49:52;;;;;;;17.80;16.08;;;;;;;30.93;22.30;95610.16;6877421;28;20303;-76
2021/04/22 09:53:16;;;;;;;18.33;16.92;;;;;;;30.99;22.04;95614.63;6884761;28;20247;-75
2021/04/22 09:56:54;;;;;;;20.05;18.30;;;;;;;31.30;21.64;95612.28;6881118;28;20684;-74
2021/04/22 10:00:18;;;;;;;20.33;18.35;;;;;;;31.64;21.63;95608.28;6866588;28;20267;-76
2021/04/22 10:03:49;;;;;;;18.70;17.30;;;;;;;31.24;21.33;95605.06;6904954;28;20209;-74
2021/04/22 10:07:29;;;;;;;21.55;19.45;;;;;;;30.86;21.86;95605.94;6885341;28;20205;-75
2021/04/22 10:11:00;;;;;;;23.38;20.95;;;;;;;30.87;21.83;95608.44;6883465;28;20275;-75
2021/04/22 10:14:36;;;;;;;19.85;18.20;;;;;;;31.45;21.58;95605.06;6886590;28;20216;-74
2021/04/22 10:18:09;;;;;;;21.90;19.83;;;;;;;31.88;20.61;95604.16;6885885;28;20274;-74
2021/04/22 10:21:40;;;;;;;21.73;19.83;;;;;;;32.24;19.97;95615.47;6905829;28;20578;-75
2021/04/22 10:25:04;;;;;;;22.42;20.52;;;;;;;32.59;19.77;95603.91;6885680;28;20204;-74
2021/04/22 10:28:25;;;;;;;20.08;18.20;;;;;;;32.81;19.34;95609.28;6883555;28;20691;-75
2021/04/22 10:31:46;;;;;;;20.30;18.70;;;;;;;32.98;18.85;95608.00;6884064;28;20733;-74
2021/04/22 10:35:07;;;;;;;18.27;16.77;;;;;;;33.22;18.98;95608.41;6867791;28;20233;-76
2021/04/22 10:38:29;;;;;;;17.92;16.33;;;;;;;33.41;18.16;95606.00;6861819;28;20226;-75
2021/04/22 10:41:51;;;;;;;16.17;14.88;;;;;;;33.77;18.20;95610.53;6855478;28;20241;-75
2021/04/22 10:45:17;;;;;;;14.05;12.95;;;;;;;33.90;18.19;95609.97;6839194;28;20221;-75
2021/04/22 10:48:38;;;;;;;16.05;14.25;;;;;;;33.97;17.67;95607.78;6856068;28;20214;-76
2021/04/22 10:52:01;;;;;;;15.00;13.50;;;;;;;34.00;17.72;95606.44;6852567;28;20218;-76
2021/04/22 10:55:24;;;;;;;14.82;13.52;;;;;;;33.59;17.56;95605.50;6853373;28;20305;-75
2021/04/22 10:58:44;;;;;;;13.73;12.40;;;;;;;32.62;18.10;95600.63;6857147;28;20202;-76
2021/04/22 11:02:39;;;;;;;15.00;13.55;;;;;;;31.49;20.00;95600.69;6850002;28;20313;-75
2021/04/22 11:06:12;;;;;;;17.92;16.38;;;;;;;30.00;20.37;95610.94;6882191;28;20552;-75
2021/04/22 11:09:37;;;;;;;17.67;16.10;;;;;;;28.66;22.48;95604.16;6865846;28;20236;-74
2021/04/22 11:13:08;;;;;;;17.08;15.57;;;;;;;28.10;23.48;95599.28;6840201;28;20237;-74
2021/04/22 11:16:37;;;;;;;16.88;15.38;;;;;;;27.48;23.99;95595.19;6841658;28;20205;-75
2021/04/22 11:19:58;;;;;;;19.23;17.42;;;;;;;26.82;25.21;95607.81;6867408;28;20696;-75
2021/04/22 11:23:24;;;;;;;18.13;16.42;;;;;;;26.15;25.38;95602.47;6882587;28;20213;-74
2021/04/22 11:26:44;;;;;;;19.88;17.73;;;;;;;25.22;26.20;95607.75;6876169;28;20742;-74
2021/04/22 11:30:06;;;;;;;19.90;17.88;;;;;;;24.46;27.80;95602.19;6857410;28;20295;-75
2021/04/22 11:33:29;;;;;;;20.33;18.40;;;;;;;23.95;28.87;95607.47;6885777;28;20237;-75
2021/04/22 11:36:52;;;;;;;20.30;18.40;;;;;;;23.62;29.77;95599.38;6851349;28;20219;-75
2021/04/22 11:40:24;;;;;;;20.00;17.87;;;;;;;23.32;30.42;95604.31;6861334;28;20211;-75
2021/04/22 11:43:45;;;;;;;20.97;18.37;;;;;;;23.15;30.47;95602.19;6859718;28;20205;-76
2021/04/22 11:47:29;;;;;;;20.93;18.90;;;;;;;22.62;30.95;95602.00;6857033;28;20213;-77
2021/04/22 11:50:54;;;;;;;20.80;18.60;;;;;;;22.12;31.17;95600.47;6892090;28;20223;-74
2021/04/22 11:54:23;;;;;;;18.73;16.93;;;;;;;22.11;32.55;95596.09;6893446;28;20221;-75
2021/04/22 11:58:11;;;;;;;18.70;16.70;;;;;;;22.15;32.46;95595.50;6888552;28;20208;-74
2021/04/22 12:01:32;;;;;;;18.33;16.47;;;;;;;22.21;32.40;95600.13;6865892;28;21015;-75
2021/04/22 12:04:52;;;;;;;18.80;16.93;;;;;;;22.20;32.24;95603.84;6887521;28;20745;-75
2021/04/22 12:08:13;;;;;;;21.43;18.43;;;;;;;21.94;31.68;95594.72;6889156;28;20212;-75
2021/04/22 12:11:37;;;;;;;18.33;16.67;;;;;;;21.37;32.25;95601.13;6893475;28;20258;-75
2021/04/22 12:14:59;;;;;;;18.07;16.37;;;;;;;21.09;33.87;95594.78;6878382;28;20204;-75
2021/04/22 12:18:37;;;;;;;19.90;18.07;;;;;;;21.02;33.54;95604.69;6894951;28;20201;-74
2021/04/22 12:22:01;;;;;;;18.73;16.93;;;;;;;20.58;33.65;95610.19;6883130;28;20228;-74
2021/04/22 12:25:23;;;;;;;18.80;16.97;;;;;;;20.23;33.97;95607.22;6893013;28;20212;-75
2021/04/22 12:28:49;;;;;;;20.90;18.07;;;;;;;19.96;35.33;95594.41;6873302;28;20204;-74
2021/04/22 12:32:10;;;;;;;20.13;18.03;;;;;;;19.85;35.46;95590.31;6892609;28;20713;-74
2021/04/22 12:35:31;;;;;;;20.17;17.00;;;;;;;19.80;35.83;95598.13;6888810;28;20231;-74
2021/04/22 12:38:51;;;;;;;20.13;17.60;;;;;;;19.91;35.80;95594.97;6893696;28;20315;-74
2021/04/22 12:42:14;;;;;;;18.73;16.93;;;;;;;19.83;35.69;95588.81;6892316;28;20756;-74
2021/04/22 12:45:37;;;;;;;18.77;16.90;;;;;;;19.80;35.53;95592.72;6871031;28;20219;-75
2021/04/22 12:49:00;;;;;;;18.37;16.47;;;;;;;19.62;35.22;95603.00;6889914;28;20215;-75
2021/04/22 12:52:22;;;;;;;19.17;16.07;;;;;;;19.33;35.29;95605.59;6886879;28;20653;-74
2021/04/22 12:56:03;;;;;;;17.00;15.13;;;;;;;19.04;34.69;95593.72;6891616;28;20273;-74
2021/04/22 12:59:24;;;;;;;16.93;14.87;;;;;;;19.02;35.10;95601.13;6894512;28;20289;-74
2021/04/22 13:02:47;;;;;;;17.23;14.00;;;;;;;19.14;35.77;95604.25;6881597;28;20636;-74
2021/04/22 13:06:14;;;;;;;18.10;16.20;;;;;;;19.07;35.36;95609.50;6886983;28;20248;-75
2021/04/22 13:09:34;;;;;;;17.90;16.07;;;;;;;19.03;36.28;95608.19;6878184;28;20226;-74
2021/04/22 13:12:55;;;;;;;17.50;15.70;;;;;;;19.24;35.84;95602.13;6894629;28;20301;-74
2021/04/22 13:16:18;;;;;;;17.17;15.37;;;;;;;19.37;35.07;95596.13;6896164;28;20261;-74
2021/04/22 13:19:38;;;;;;;17.60;15.70;;;;;;;19.15;34.16;95593.31;6876450;28;20211;-75
2021/04/22 13:22:59;;;;;;;18.67;15.40;;;;;;;18.96;34.18;95599.19;6890563;28;20237;-74
2021/04/22 13:26:25;;;;;;;18.37;16.37;;;;;;;18.90;34.42;95589.13;6876915;28;20212;-75
2021/04/22 13:29:49;;;;;;;19.03;15.10;;;;;;;18.95;34.83;95607.41;6881654;28;20213;-74
2021/04/22 13:33:22;;;;;;;21.43;15.60;;;;;;;18.89;34.43;95597.34;6901937;28;20222;-74
2021/04/22 13:36:46;;;;;;;16.17;14.47;;;;;;;18.93;34.88;95599.50;6885815;28;20213;-74
2021/04/22 13:40:16;;;;;;;18.03;14.03;;;;;;;18.91;34.87;95598.88;6883510;28;20211;-74
2021/04/22 13:43:37;;;;;;;17.07;14.60;;;;;;;18.71;33.59;95601.16;6901367;28;20740;-74
2021/04/22 13:47:08;;;;;;;15.37;13.23;;;;;;;18.46;34.22;95601.47;6878205;28;20938;-74
2021/04/22 13:50:29;;;;;;;15.13;13.40;;;;;;;18.39;34.56;95606.69;6882684;28;20264;-74
2021/04/22 13:53:49;;;;;;;14.37;12.87;;;;;;;18.47;33.39;95595.06;6898169;28;20299;-74
2021/04/22 13:57:13;;;;;;;14.20;12.67;;;;;;;18.44;32.46;95596.25;6899475;28;20241;-74
2021/04/22 14:00:35;;;;;;;14.80;13.30;;;;;;;18.47;32.87;95593.19;6888689;28;20348;-74
2021/04/22 14:03:55;;;;;;;13.57;11.40;;;;;;;18.59;33.40;95599.91;6885857;28;20208;-74
2021/04/22 14:07:16;;;;;;;13.40;12.10;;;;;;;18.69;32.58;95588.91;6900023;28;20260;-74
2021/04/22 14:10:40;;;;;;;14.03;12.63;;;;;;;18.73;32.59;95585.69;6883013;28;20984;-75
2021/04/22 14:14:00;;;;;;;13.83;12.07;;;;;;;18.89;33.06;95579.38;6900127;28;20220;-75
2021/04/22 14:17:21;;;;;;;13.80;11.50;;;;;;;18.82;31.75;95586.47;6890464;28;20248;-75
2021/04/22 14:20:41;;;;;;;12.37;11.17;;;;;;;18.64;32.00;95597.53;6896425;28;20229;-74
2021/04/22 14:24:03;;;;;;;12.63;11.37;;;;;;;18.59;32.99;95577.53;6882023;28;20234;-74
2021/04/22 14:27:24;;;;;;;15.40;11.93;;;;;;;18.79;33.33;95571.53;6885322;28;20223;-75
2021/04/22 14:30:44;;;;;;;15.57;12.50;;;;;;;18.83;33.16;95577.38;6875874;28;20226;-73
2021/04/22 14:34:05;;;;;;;14.80;13.30;;;;;;;18.76;33.21;95589.91;6873836;28;20211;-74
2021/04/22 14:37:26;;;;;;;15.83;12.17;;;;;;;18.53;32.90;95581.75;6880407;28;20721;-73
2021/04/22 14:40:48;;;;;;;12.57;11.37;;;;;;;18.50;32.54;95570.50;6887625;28;20672;-72
2021/04/22 14:44:11;;;;;;;14.37;12.13;;;;;;;18.57;32.51;95571.50;6875513;28;20272;-73
2021/04/22 14:47:31;;;;;;;14.53;11.70;;;;;;;18.62;32.66;95575.31;6881793;28;20214;-74
2021/04/22 14:50:52;;;;;;;15.57;13.33;;;;;;;18.51;33.36;95569.50;6880233;28;20369;-73
2021/04/22 14:54:15;;;;;;;16.17;13.70;;;;;;;18.51;33.64;95569.50;6882956;28;20224;-74
2021/04/22 14:57:35;;;;;;;13.97;12.57;;;;;;;18.40;33.91;95566.19;6864447;28;20225;-73
2021/04/22 15:00:56;;;;;;;13.23;11.63;;;;;;;18.48;34.69;95573.38;6880232;28;20570;-73
2021/04/22 15:04:19;;;;;;;12.67;11.47;;;;;;;18.62;34.75;95569.09;6883273;28;21437;-73
2021/04/22 15:07:39;;;;;;;16.03;14.37;;;;;;;18.74;33.41;95581.16;6879737;28;20253;-72
2021/04/22 15:11:00;;;;;;;17.47;13.80;;;;;;;18.60;33.17;95598.06;6874833;28;20633;-72
2021/04/22 15:14:21;;;;;;;14.90;13.40;;;;;;;18.53;33.19;95573.69;6881005;28;20699;-71
2021/04/22 15:17:41;;;;;;;15.50;13.87;;;;;;;18.54;33.30;95580.78;6892204;28;20677;-72
2021/04/22 15:21:04;;;;;;;18.00;15.93;;;;;;;18.50;32.91;95581.28;6881969;28;20254;-74
2021/04/22 15:24:24;;;;;;;14.60;13.10;;;;;;;18.42;33.06;95585.66;6880341;28;20691;-74
2021/04/22 15:27:47;;;;;;;17.20;15.23;;;;;;;18.22;33.15;95578.19;6879881;28;20246;-74
2021/04/22 15:31:07;;;;;;;16.90;15.10;;;;;;;18.10;33.31;95588.53;6891836;28;20268;-73
2021/04/22 15:34:28;;;;;;;16.73;15.03;;;;;;;18.05;32.85;95587.38;6879295;28;20226;-74
2021/04/22 15:37:52;;;;;;;18.47;16.20;;;;;;;18.11;32.85;95586.66;6881605;28;20213;-73
2021/04/22 15:41:15;;;;;;;19.73;17.63;;;;;;;18.06;32.64;95589.03;6882427;28;20236;-72
2021/04/22 15:44:35;;;;;;;18.07;15.73;;;;;;;18.03;33.05;95592.91;6863970;28;20264;-74